Time;durP1;ratioP1;P1;durP2;ratioP2;P2;SDS_P1;SDS_P2;PMS_P1;PMS_P2;Temp;Humidity;BMP_temperature;BMP_pressure;BME280_temperature;BME280_humidity;BME280_pressure;Samples;Min_cycle;Max_cycle;Signal;HPM_P1;HPM_P2
2024/03/20 00:01:43;;;;;;;8.52;6.78;;;6.20;65.50;;;;;;4984884;28;20026;-70
2024/03/20 00:04:30;;;;;;;9.48;7.03;;;6.20;64.50;;;;;;4965050;28;20534;-69
2024/03/20 00:07:00;;;;;;;10.15;7.38;;;6.20;65.00;;;;;;4963333;28;20412;-68
2024/03/20 00:09:26;;;;;;;9.95;6.53;;;6.00;65.90;;;;;;4978390;28;20034;-70
2024/03/20 00:11:52;;;;;;;8.10;7.18;;;6.00;65.60;;;;;;4968222;28;20096;-66
2024/03/20 00:14:19;;;;;;;10.98;7.82;;;6.10;65.70;;;;;;4972044;28;20034;-69
2024/03/20 00:16:45;;;;;;;13.30;8.65;;;6.20;69.30;;;;;;4962634;28;20058;-67
2024/03/20 00:19:12;;;;;;;10.13;8.05;;;6.00;71.10;;;;;;4973771;28;20038;-68
2024/03/20 00:21:38;;;;;;;10.40;7.13;;;6.00;71.50;;;;;;4977545;28;20034;-70
2024/03/20 00:24:04;;;;;;;9.70;7.75;;;5.90;67.10;;;;;;4971700;28;20397;-70
2024/03/20 00:26:31;;;;;;;10.48;7.45;;;6.00;69.10;;;;;;4972201;28;20478;-68
2024/03/20 00:28:57;;;;;;;10.63;7.55;;;6.10;68.40;;;;;;4971782;28;20090;-68
2024/03/20 00:31:23;;;;;;;10.70;8.50;;;6.10;69.70;;;;;;4971497;28;20031;-66
2024/03/20 00:33:51;;;;;;;12.55;8.65;;;6.00;71.50;;;;;;4972116;28;20397;-68
2024/03/20 00:36:18;;;;;;;11.32;8.70;;;5.80;72.50;;;;;;4971637;28;20034;-67
2024/03/20 00:38:44;;;;;;;9.63;7.55;;;5.70;72.60;;;;;;4978745;28;20033;-68
2024/03/20 00:41:10;;;;;;;12.18;7.95;;;5.80;69.80;;;;;;4961420;28;20031;-67
2024/03/20 00:43:38;;;;;;;11.63;8.13;;;5.90;69.60;;;;;;4983332;28;20034;-70
2024/03/20 00:46:05;;;;;;;10.35;7.88;;;5.90;69.20;;;;;;4971465;28;20030;-69
2024/03/20 00:48:31;;;;;;;10.65;8.32;;;5.90;70.00;;;;;;4980322;28;20049;-69
2024/03/20 00:50:58;;;;;;;10.20;7.80;;;5.90;70.10;;;;;;4959266;28;20046;-68
2024/03/20 00:53:24;;;;;;;12.75;7.95;;;5.90;69.60;;;;;;4960668;28;20443;-68
2024/03/20 00:55:50;;;;;;;10.90;8.23;;;5.90;69.90;;;;;;4973713;28;20035;-67
2024/03/20 00:58:16;;;;;;;9.07;7.47;;;5.90;70.00;;;;;;4981508;28;20038;-70
2024/03/20 01:00:44;;;;;;;9.32;7.05;;;5.60;68.90;;;;;;4960449;28;20066;-68
2024/03/20 01:03:11;;;;;;;8.07;7.03;;;5.70;66.80;;;;;;4977146;28;20477;-68
2024/03/20 01:05:37;;;;;;;8.63;7.20;;;5.50;66.50;;;;;;4985781;28;20022;-68
2024/03/20 01:08:04;;;;;;;8.35;6.65;;;5.40;67.00;;;;;;4964096;28;20046;-71
2024/03/20 01:10:30;;;;;;;7.53;6.72;;;5.60;66.00;;;;;;4960521;28;20043;-69
2024/03/20 01:12:56;;;;;;;7.60;6.80;;;5.60;66.20;;;;;;4978546;28;20033;-66
2024/03/20 01:15:23;;;;;;;9.75;6.70;;;5.50;66.50;;;;;;4971150;28;20046;-67
2024/03/20 01:17:49;;;;;;;7.47;6.35;;;5.60;66.40;;;;;;4971116;28;20035;-71
2024/03/20 01:20:15;;;;;;;6.90;6.20;;;5.50;66.10;;;;;;4969849;28;20030;-70
2024/03/20 01:22:41;;;;;;;7.72;6.00;;;5.40;66.00;;;;;;4971403;28;20666;-70
2024/03/20 01:25:09;;;;;;;6.72;5.70;;;5.40;66.30;;;;;;4981813;28;20059;-67
2024/03/20 01:27:38;;;;;;;6.53;5.60;;;5.40;66.10;;;;;;4954505;28;20038;-71
2024/03/20 01:30:05;;;;;;;7.45;6.25;;;5.40;66.20;;;;;;4974030;28;20050;-70
2024/03/20 01:32:32;;;;;;;7.25;6.30;;;5.30;66.30;;;;;;4973924;28;20230;-69
2024/03/20 01:34:58;;;;;;;9.32;6.40;;;5.30;66.30;;;;;;4973409;28;20034;-70
2024/03/20 01:37:24;;;;;;;8.35;6.28;;;5.30;66.30;;;;;;4990259;28;20038;-70
2024/03/20 01:39:51;;;;;;;7.25;6.38;;;5.30;66.70;;;;;;4970099;28;20435;-69
2024/03/20 01:42:18;;;;;;;7.68;6.10;;;5.30;66.80;;;;;;4971167;28;20042;-68
2024/03/20 01:44:44;;;;;;;7.03;5.88;;;5.20;67.30;;;;;;4970299;28;20077;-69
2024/03/20 01:47:11;;;;;;;5.93;5.32;;;5.20;66.90;;;;;;4981404;28;20044;-71
2024/03/20 01:49:37;;;;;;;6.72;6.07;;;5.10;67.30;;;;;;4972948;28;20030;-70
2024/03/20 01:52:04;;;;;;;6.88;6.20;;;5.10;67.50;;;;;;4972603;28;20092;-69
2024/03/20 01:54:30;;;;;;;8.98;6.68;;;5.10;67.40;;;;;;4973988;28;20030;-70
2024/03/20 01:56:57;;;;;;;6.10;5.50;;;5.20;67.30;;;;;;4974219;28;20050;-71
2024/03/20 01:59:23;;;;;;;6.40;5.63;;;5.10;67.30;;;;;;4973904;28;20041;-71
2024/03/20 02:01:53;;;;;;;7.50;6.72;;;5.20;67.20;;;;;;4973700;28;20034;-69
2024/03/20 02:04:19;;;;;;;6.80;6.10;;;5.20;67.40;;;;;;4958156;28;20030;-69
2024/03/20 02:06:46;;;;;;;7.32;6.40;;;5.10;67.60;;;;;;4973901;28;20042;-69
2024/03/20 02:09:12;;;;;;;7.65;6.60;;;5.10;67.70;;;;;;5004466;28;20030;-70
2024/03/20 02:11:38;;;;;;;6.93;6.22;;;5.00;67.90;;;;;;4957801;28;20486;-70
2024/03/20 02:14:05;;;;;;;6.88;5.70;;;5.00;68.20;;;;;;4974132;28;20046;-69
2024/03/20 02:16:31;;;;;;;7.07;6.32;;;5.00;68.00;;;;;;4985926;28;20045;-70
2024/03/20 02:18:57;;;;;;;7.57;6.32;;;5.00;68.10;;;;;;4974566;28;20042;-68
2024/03/20 02:21:23;;;;;;;6.50;5.80;;;5.00;68.10;;;;;;5008594;28;20432;-68
2024/03/20 02:23:51;;;;;;;6.68;5.97;;;5.00;68.70;;;;;;4974069;28;20095;-68
2024/03/20 02:26:17;;;;;;;7.18;6.18;;;4.90;69.00;;;;;;4986453;28;20034;-67
2024/03/20 02:28:45;;;;;;;7.03;6.32;;;5.10;69.20;;;;;;4973999;28;20053;-69
2024/03/20 02:31:13;;;;;;;7.65;6.18;;;5.10;68.80;;;;;;4973119;28;20084;-66
2024/03/20 02:33:41;;;;;;;7.50;6.68;;;5.00;69.00;;;;;;4986391;28;20126;-70
2024/03/20 02:36:07;;;;;;;6.97;6.28;;;5.00;68.80;;;;;;4973688;28;20034;-70
2024/03/20 02:38:38;;;;;;;7.05;6.28;;;5.00;69.00;;;;;;4973570;28;20034;-68
2024/03/20 02:41:06;;;;;;;7.22;6.22;;;5.00;69.30;;;;;;4973255;28;20432;-68
2024/03/20 02:43:33;;;;;;;6.90;6.07;;;4.90;69.30;;;;;;4964755;28;20045;-67
2024/03/20 02:46:00;;;;;;;8.45;6.13;;;5.00;69.10;;;;;;4979227;28;20080;-71
2024/03/20 02:48:26;;;;;;;7.35;6.20;;;4.90;69.20;;;;;;4985034;28;20393;-69
2024/03/20 02:50:52;;;;;;;7.07;6.38;;;4.90;69.30;;;;;;4972809;28;22086;-69
2024/03/20 02:53:18;;;;;;;7.82;6.53;;;5.00;69.60;;;;;;4974249;28;20388;-70
2024/03/20 02:55:46;;;;;;;7.45;6.30;;;5.00;69.30;;;;;;4973410;28;20447;-68
2024/03/20 02:58:13;;;;;;;7.72;6.53;;;4.90;69.80;;;;;;4957422;28;20385;-67
2024/03/20 03:00:39;;;;;;;7.57;6.05;;;5.00;69.30;;;;;;4993100;28;20076;-68
2024/03/20 03:03:06;;;;;;;7.38;6.40;;;5.00;69.30;;;;;;4969876;28;20036;-68
2024/03/20 03:05:32;;;;;;;8.48;6.18;;;4.90;69.20;;;;;;4976824;28;20546;-68
2024/03/20 03:07:59;;;;;;;7.07;6.07;;;4.90;69.00;;;;;;4982989;28;20494;-67
2024/03/20 03:10:25;;;;;;;7.65;5.80;;;4.90;69.30;;;;;;4972571;28;20435;-67
2024/03/20 03:12:52;;;;;;;7.03;6.32;;;4.80;69.60;;;;;;4977359;28;20390;-70
2024/03/20 03:15:20;;;;;;;7.93;6.82;;;4.80;69.70;;;;;;4976481;28;20030;-69
2024/03/20 03:17:54;;;;;;;9.95;6.68;;;4.80;69.60;;;;;;4992028;28;20535;-68
2024/03/20 03:20:26;;;;;;;7.00;6.20;;;4.80;69.80;;;;;;4972356;28;20077;-69
2024/03/20 03:22:52;;;;;;;7.90;6.75;;;4.90;69.80;;;;;;4972658;28;20221;-69
2024/03/20 03:25:19;;;;;;;7.95;6.43;;;5.00;70.00;;;;;;4982976;28;20049;-69
2024/03/20 03:27:45;;;;;;;8.48;6.15;;;5.10;69.90;;;;;;4974856;28;20050;-67
2024/03/20 03:30:11;;;;;;;7.05;5.47;;;5.00;70.00;;;;;;4972613;28;20389;-67
2024/03/20 03:32:38;;;;;;;8.45;6.45;;;4.90;69.60;;;;;;4979896;28;20041;-68
2024/03/20 03:35:06;;;;;;;8.45;6.50;;;4.90;69.80;;;;;;4972397;28;20034;-67
2024/03/20 03:37:33;;;;;;;11.65;6.72;;;5.00;69.30;;;;;;4972787;28;20050;-69
2024/03/20 03:40:05;;;;;;;7.03;5.90;;;4.90;69.30;;;;;;4985337;28;20042;-69
2024/03/20 03:42:33;;;;;;;7.03;5.75;;;4.90;69.20;;;;;;4956828;28;20038;-67
2024/03/20 03:44:59;;;;;;;7.85;6.32;;;4.90;69.30;;;;;;4972865;28;20095;-68
2024/03/20 03:47:30;;;;;;;7.95;6.32;;;4.90;69.30;;;;;;4972435;28;20038;-69
2024/03/20 03:49:57;;;;;;;7.90;6.03;;;4.90;69.30;;;;;;4972563;28;20413;-67
2024/03/20 03:52:23;;;;;;;8.25;5.93;;;4.90;69.30;;;;;;4972478;28;20144;-67
2024/03/20 03:54:49;;;;;;;6.85;6.10;;;4.90;69.40;;;;;;4956436;28;20490;-70
2024/03/20 03:57:17;;;;;;;8.10;6.55;;;4.90;69.50;;;;;;4973247;28;20389;-69
2024/03/20 03:59:44;;;;;;;6.55;5.95;;;5.00;69.80;;;;;;4983579;28;20049;-68
2024/03/20 04:02:11;;;;;;;8.07;6.00;;;4.90;69.50;;;;;;4972360;28;20034;-70
2024/03/20 04:04:37;;;;;;;9.13;6.40;;;4.80;69.70;;;;;;4965972;28;20033;-68
2024/03/20 04:07:04;;;;;;;7.55;6.55;;;4.80;70.10;;;;;;4976265;28;20039;-69
2024/03/20 04:09:30;;;;;;;9.35;6.63;;;4.90;69.50;;;;;;4972106;28;20087;-69
2024/03/20 04:11:58;;;;;;;8.05;6.50;;;4.90;70.30;;;;;;4972015;28;20042;-72
2024/03/20 04:14:24;;;;;;;7.63;6.22;;;4.90;69.70;;;;;;4955126;28;20041;-69
2024/03/20 04:16:51;;;;;;;7.35;6.10;;;4.90;69.80;;;;;;4971842;28;20037;-69
2024/03/20 04:19:17;;;;;;;7.38;6.63;;;4.80;69.80;;;;;;4999742;28;20041;-69
2024/03/20 04:21:43;;;;;;;8.65;6.43;;;4.90;69.60;;;;;;4977166;28;20493;-69
2024/03/20 04:24:09;;;;;;;7.28;5.93;;;4.90;69.30;;;;;;4966643;28;20035;-71
2024/03/20 04:26:35;;;;;;;8.23;6.40;;;4.90;69.40;;;;;;4971964;28;20041;-68
2024/03/20 04:29:02;;;;;;;6.90;6.20;;;4.90;69.40;;;;;;4999690;28;20034;-70
2024/03/20 04:31:28;;;;;;;6.43;5.78;;;4.90;69.20;;;;;;4972565;28;20095;-67
2024/03/20 04:33:54;;;;;;;7.25;6.13;;;5.00;68.90;;;;;;4991344;28;20490;-70
2024/03/20 04:36:20;;;;;;;7.63;6.45;;;5.00;69.00;;;;;;4976794;28;20041;-72
2024/03/20 04:38:46;;;;;;;8.20;6.45;;;5.00;69.40;;;;;;4944380;28;20039;-70
2024/03/20 04:41:13;;;;;;;6.45;5.78;;;5.00;69.00;;;;;;4971920;28;20635;-69
2024/03/20 04:43:39;;;;;;;7.93;6.38;;;4.90;69.30;;;;;;4971576;28;20030;-71
2024/03/20 04:46:05;;;;;;;8.52;6.20;;;4.90;69.30;;;;;;5000066;28;20469;-69
2024/03/20 04:48:32;;;;;;;6.88;6.00;;;5.00;69.20;;;;;;4971706;28;20041;-67
2024/03/20 04:50:58;;;;;;;10.10;6.85;;;5.00;69.20;;;;;;4983996;28;20049;-68
2024/03/20 04:53:24;;;;;;;7.38;6.10;;;5.00;69.30;;;;;;4955967;28;20462;-68
2024/03/20 04:55:52;;;;;;;8.38;6.68;;;5.00;69.40;;;;;;4967117;28;20050;-69
2024/03/20 04:58:18;;;;;;;7.95;6.28;;;5.10;69.40;;;;;;4964888;28;20034;-67
2024/03/20 05:00:44;;;;;;;7.32;6.50;;;5.10;69.40;;;;;;4974421;28;20488;-68
2024/03/20 05:03:10;;;;;;;8.43;6.15;;;5.10;69.50;;;;;;4971996;28;20377;-69
2024/03/20 05:05:37;;;;;;;7.25;5.85;;;5.10;69.60;;;;;;4955527;28;20481;-70
2024/03/20 05:08:04;;;;;;;6.75;6.05;;;5.30;69.40;;;;;;4971544;28;20034;-70
2024/03/20 05:10:30;;;;;;;12.63;7.22;;;5.40;70.00;;;;;;4984021;28;20047;-69
2024/03/20 05:12:56;;;;;;;10.63;7.05;;;5.40;71.50;;;;;;4970739;28;20047;-68
2024/03/20 05:15:22;;;;;;;10.68;8.25;;;5.20;73.10;;;;;;4975312;28;20042;-69
2024/03/20 05:17:49;;;;;;;10.77;8.73;;;5.10;75.40;;;;;;4974511;28;20045;-70
2024/03/20 05:20:15;;;;;;;13.32;8.77;;;5.00;75.80;;;;;;4977275;28;20046;-68
2024/03/20 05:22:42;;;;;;;11.40;9.18;;;4.70;76.30;;;;;;4966923;28;20036;-68
2024/03/20 05:25:08;;;;;;;9.88;8.02;;;4.70;76.90;;;;;;4945948;28;20042;-70
2024/03/20 05:27:34;;;;;;;13.98;8.40;;;4.80;76.30;;;;;;4974474;28;20721;-69
2024/03/20 05:30:02;;;;;;;11.82;8.25;;;4.60;76.20;;;;;;4974129;28;20038;-68
2024/03/20 05:32:28;;;;;;;11.40;8.82;;;4.50;77.30;;;;;;4964956;28;20156;-68
2024/03/20 05:34:54;;;;;;;12.20;8.90;;;4.70;77.20;;;;;;4974097;28;20035;-69
2024/03/20 05:37:23;;;;;;;13.00;8.68;;;4.80;76.70;;;;;;4973190;28;20041;-70
2024/03/20 05:39:49;;;;;;;11.27;8.50;;;4.80;76.60;;;;;;4973874;28;20042;-66
2024/03/20 05:42:16;;;;;;;14.23;9.13;;;5.00;76.30;;;;;;4973978;28;20359;-68
2024/03/20 05:44:42;;;;;;;15.02;8.25;;;5.00;75.90;;;;;;4986935;28;20034;-68
2024/03/20 05:47:08;;;;;;;11.50;7.82;;;5.00;75.50;;;;;;4977830;28;20034;-68
2024/03/20 05:49:34;;;;;;;12.73;8.88;;;5.00;74.70;;;;;;4967819;28;20034;-67
2024/03/20 05:52:01;;;;;;;12.15;8.57;;;4.90;75.00;;;;;;4964178;28;20176;-68
2024/03/20 05:54:27;;;;;;;11.32;8.18;;;5.00;75.30;;;;;;4974304;28;20030;-67
2024/03/20 05:56:53;;;;;;;13.02;8.80;;;5.10;75.10;;;;;;4987164;28;20396;-67
2024/03/20 05:59:20;;;;;;;12.98;9.07;;;5.20;74.60;;;;;;4974533;28;20386;-68
2024/03/20 06:01:46;;;;;;;96.75;46.05;;;5.30;74.00;;;;;;4986767;28;20393;-67
2024/03/20 06:04:13;;;;;;;97.95;50.63;;;5.60;79.60;;;;;;4981103;28;20034;-70
2024/03/20 06:06:42;;;;;;;22.77;17.13;;;6.20;77.00;;;;;;4966015;28;20023;-67
2024/03/20 06:09:13;;;;;;;16.25;11.13;;;6.00;73.40;;;;;;4974837;28;20359;-68
2024/03/20 06:11:42;;;;;;;20.63;12.68;;;6.00;73.40;;;;;;4986165;28;20358;-68
2024/03/20 06:14:10;;;;;;;27.15;15.30;;;6.10;74.60;;;;;;4969963;28;20037;-67
2024/03/20 06:16:36;;;;;;;22.02;14.02;;;6.20;72.70;;;;;;4978543;28;20030;-69
2024/03/20 06:19:04;;;;;;;19.80;11.45;;;5.80;72.40;;;;;;4980097;28;20822;-69
2024/03/20 06:21:31;;;;;;;89.78;41.47;;;5.80;71.50;;;;;;4976897;28;20041;-70
2024/03/20 06:23:58;;;;;;;33.55;19.08;;;5.80;73.80;;;;;;4988344;28;20091;-67
2024/03/20 06:26:24;;;;;;;17.92;10.20;;;6.20;72.60;;;;;;4972128;28;20034;-67
2024/03/20 06:28:51;;;;;;;11.40;8.60;;;6.20;71.50;;;;;;4985420;28;20045;-69
2024/03/20 06:31:17;;;;;;;9.95;7.55;;;6.30;71.10;;;;;;4973248;28;20381;-68
2024/03/20 06:33:44;;;;;;;14.27;8.35;;;6.30;71.80;;;;;;4979183;28;20422;-67
2024/03/20 06:36:11;;;;;;;12.60;7.88;;;6.50;71.80;;;;;;4989262;28;20056;-69
2024/03/20 06:38:37;;;;;;;12.55;8.32;;;6.70;71.40;;;;;;4979827;28;20087;-69
2024/03/20 06:41:04;;;;;;;10.68;7.47;;;6.70;69.60;;;;;;4981049;28;20034;-67
2024/03/20 06:43:34;;;;;;;13.38;7.97;;;6.30;70.10;;;;;;4975123;28;20401;-68
2024/03/20 06:46:05;;;;;;;10.57;7.72;;;6.10;69.80;;;;;;4973672;28;20116;-68
2024/03/20 06:48:31;;;;;;;11.80;7.63;;;6.00;70.20;;;;;;4972694;28;20030;-68
2024/03/20 06:50:58;;;;;;;24.13;13.27;;;6.10;70.10;;;;;;4974189;28;20401;-69
2024/03/20 06:53:28;;;;;;;13.75;8.80;;;6.50;72.10;;;;;;4982099;28;20465;-71
2024/03/20 06:55:55;;;;;;;10.15;7.47;;;6.40;69.50;;;;;;4975742;28;20109;-72
2024/03/20 06:58:22;;;;;;;8.70;7.00;;;6.50;68.10;;;;;;4981793;28;20039;-69
2024/03/20 07:00:48;;;;;;;8.40;6.22;;;6.60;67.00;;;;;;4977361;28;20033;-67
2024/03/20 07:03:16;;;;;;;9.75;6.97;;;6.50;66.80;;;;;;4981505;28;20079;-71
2024/03/20 07:05:42;;;;;;;9.40;6.63;;;6.80;66.60;;;;;;4977529;28;20037;-70
2024/03/20 07:08:10;;;;;;;9.10;6.90;;;6.80;66.80;;;;;;4981343;28;20038;-72
2024/03/20 07:10:38;;;;;;;8.93;6.60;;;6.90;66.70;;;;;;4955076;28;20369;-72
2024/03/20 07:13:05;;;;;;;10.70;6.70;;;7.30;66.70;;;;;;4975680;28;20370;-69
2024/03/20 07:15:32;;;;;;;11.43;6.47;;;7.60;66.10;;;;;;4975061;28;20072;-69
2024/03/20 07:18:04;;;;;;;9.13;6.75;;;7.70;65.30;;;;;;4976568;28;20050;-71
2024/03/20 07:20:31;;;;;;;9.57;7.20;;;7.40;65.50;;;;;;4984117;28;20034;-70
2024/03/20 07:23:01;;;;;;;9.23;6.53;;;7.60;65.60;;;;;;4976954;28;20034;-69
2024/03/20 07:25:27;;;;;;;8.88;6.50;;;8.00;65.50;;;;;;4985106;28;20443;-71
2024/03/20 07:27:56;;;;;;;12.43;6.80;;;8.30;64.40;;;;;;4979462;28;20046;-70
2024/03/20 07:30:22;;;;;;;10.13;6.22;;;8.00;65.30;;;;;;4971699;28;20302;-70
2024/03/20 07:32:49;;;;;;;7.15;6.15;;;7.60;64.50;;;;;;4972067;28;20037;-69
2024/03/20 07:35:23;;;;;;;11.05;6.50;;;7.60;65.50;;;;;;4954095;28;20197;-67
2024/03/20 07:37:50;;;;;;;7.20;5.60;;;7.60;65.10;;;;;;4969310;28;20427;-71
2024/03/20 07:40:17;;;;;;;8.55;6.00;;;7.50;65.00;;;;;;4975887;28;20034;-71
2024/03/20 07:42:44;;;;;;;9.38;6.50;;;7.50;64.90;;;;;;4977345;28;20520;-70
2024/03/20 07:45:11;;;;;;;9.85;6.68;;;7.50;64.90;;;;;;4984675;28;20053;-71
2024/03/20 07:47:38;;;;;;;9.38;6.53;;;7.70;64.00;;;;;;4961526;28;20527;-72
2024/03/20 07:50:05;;;;;;;7.82;5.85;;;7.60;64.90;;;;;;4979908;28;20038;-71
2024/03/20 07:52:31;;;;;;;9.73;6.53;;;7.50;64.90;;;;;;4973055;28;20037;-69
2024/03/20 07:54:59;;;;;;;8.15;6.28;;;7.50;64.40;;;;;;4977138;28;20436;-68
2024/03/20 07:57:25;;;;;;;11.07;6.50;;;8.00;63.90;;;;;;4984453;28;20050;-73
2024/03/20 07:59:53;;;;;;;9.05;6.30;;;8.30;63.20;;;;;;4977644;28;20043;-72
2024/03/20 08:02:19;;;;;;;11.95;7.07;;;8.00;63.00;;;;;;4978171;28;20470;-69
2024/03/20 08:04:45;;;;;;;8.18;6.00;;;8.40;63.50;;;;;;4981919;28;20098;-68
2024/03/20 08:07:11;;;;;;;8.60;5.82;;;8.30;63.20;;;;;;4963641;28;20378;-69
2024/03/20 08:09:38;;;;;;;11.50;6.38;;;8.00;63.10;;;;;;4976179;28;20092;-69
2024/03/20 08:12:04;;;;;;;7.15;5.85;;;8.40;63.60;;;;;;4960332;28;20037;-69
2024/03/20 08:14:30;;;;;;;9.90;6.97;;;8.80;62.60;;;;;;4971004;28;20086;-68
2024/03/20 08:16:57;;;;;;;10.77;6.32;;;8.50;62.70;;;;;;4956041;28;20038;-70
2024/03/20 08:19:24;;;;;;;8.13;6.05;;;8.90;63.30;;;;;;4976797;28;20031;-72
2024/03/20 08:21:50;;;;;;;9.48;6.28;;;8.30;63.50;;;;;;4941487;28;20042;-71
2024/03/20 08:24:16;;;;;;;7.28;5.75;;;8.10;63.20;;;;;;4972042;28;20043;-69
2024/03/20 08:26:42;;;;;;;9.27;5.88;;;8.10;63.20;;;;;;4982127;28;20453;-69
2024/03/20 08:29:09;;;;;;;8.52;5.05;;;8.20;62.90;;;;;;4971700;28;20035;-69
2024/03/20 08:31:35;;;;;;;7.72;6.00;;;8.00;63.10;;;;;;4971988;28;20377;-68
2024/03/20 08:34:01;;;;;;;8.95;6.18;;;8.00;63.10;;;;;;4971969;28;20030;-68
2024/03/20 08:36:29;;;;;;;7.13;5.82;;;8.10;63.60;;;;;;4971511;28;20469;-68
2024/03/20 08:38:55;;;;;;;7.13;5.60;;;8.10;63.40;;;;;;4980962;28;20045;-70
2024/03/20 08:41:21;;;;;;;8.75;5.68;;;8.20;63.40;;;;;;4975889;28;20142;-70
2024/03/20 08:43:48;;;;;;;11.00;5.88;;;8.50;62.90;;;;;;4979570;28;20038;-71
2024/03/20 08:46:17;;;;;;;12.63;6.13;;;8.90;61.60;;;;;;4979871;28;20034;-72
2024/03/20 08:48:44;;;;;;;7.75;5.95;;;8.80;61.80;;;;;;4976079;28;20034;-74
2024/03/20 08:51:11;;;;;;;6.88;5.40;;;8.70;62.30;;;;;;4974839;28;20086;-71
2024/03/20 08:53:37;;;;;;;8.27;5.82;;;8.40;63.30;;;;;;4964212;28;20046;-71
2024/03/20 08:56:03;;;;;;;8.75;6.30;;;8.30;62.90;;;;;;4971217;28;20088;-70
2024/03/20 08:58:29;;;;;;;9.40;5.90;;;8.50;62.90;;;;;;4971620;28;20046;-72
2024/03/20 09:00:57;;;;;;;7.35;5.97;;;8.90;62.60;;;;;;4971113;28;20034;-72
2024/03/20 09:03:23;;;;;;;7.30;5.78;;;8.90;62.20;;;;;;4956910;28;20045;-71
2024/03/20 09:05:50;;;;;;;9.55;5.80;;;9.60;61.80;;;;;;4974155;28;20061;-71
2024/03/20 09:08:20;;;;;;;7.30;5.43;;;9.60;61.10;;;;;;4973846;28;20084;-70
2024/03/20 09:10:47;;;;;;;7.53;6.00;;;10.10;61.20;;;;;;4975325;28;20504;-70
2024/03/20 09:13:13;;;;;;;6.80;5.43;;;10.40;60.10;;;;;;4971004;28;20046;-70
2024/03/20 09:15:40;;;;;;;6.90;5.28;;;9.90;59.30;;;;;;4971271;28;20032;-72
2024/03/20 09:18:06;;;;;;;8.65;5.18;;;9.50;60.20;;;;;;5044034;28;20042;-71
2024/03/20 09:20:33;;;;;;;8.43;5.18;;;9.80;60.40;;;;;;4958112;28;20041;-71
2024/03/20 09:23:01;;;;;;;7.47;5.10;;;9.70;60.70;;;;;;4974007;28;20042;-70
2024/03/20 09:25:27;;;;;;;10.23;5.38;;;9.50;60.50;;;;;;4979081;28;20038;-70
2024/03/20 09:27:55;;;;;;;6.90;5.03;;;9.80;60.60;;;;;;4971867;28;20049;-71
2024/03/20 09:30:24;;;;;;;8.63;5.47;;;9.50;61.40;;;;;;4971161;28;20046;-70
2024/03/20 09:32:51;;;;;;;8.38;5.25;;;9.50;61.70;;;;;;4971110;28;20478;-70
2024/03/20 09:35:17;;;;;;;9.80;5.45;;;9.90;60.00;;;;;;4975618;28;20026;-71
2024/03/20 09:37:43;;;;;;;9.43;5.03;;;9.90;60.50;;;;;;4962263;28;20053;-68
2024/03/20 09:40:14;;;;;;;8.52;5.53;;;10.20;61.10;;;;;;4972370;28;20038;-71
2024/03/20 09:42:42;;;;;;;8.60;5.90;;;10.10;61.10;;;;;;4965302;28;20047;-71
2024/03/20 09:45:12;;;;;;;7.55;5.30;;;9.80;61.00;;;;;;4990408;28;20354;-68
2024/03/20 09:47:39;;;;;;;8.77;5.03;;;10.00;60.50;;;;;;4987837;28;20038;-69
2024/03/20 09:50:14;;;;;;;7.85;5.07;;;10.20;61.00;;;;;;4978697;28;20111;-70
2024/03/20 09:52:40;;;;;;;6.35;4.90;;;10.50;59.50;;;;;;4973452;28;20397;-70
2024/03/20 09:55:12;;;;;;;9.18;5.10;;;10.50;60.50;;;;;;4960990;28;20034;-71
2024/03/20 09:57:45;;;;;;;9.15;5.60;;;10.40;59.70;;;;;;4973169;28;20038;-71
2024/03/20 10:00:16;;;;;;;7.13;5.10;;;10.40;59.60;;;;;;4970715;28;20034;-69
2024/03/20 10:02:48;;;;;;;7.47;4.95;;;10.60;60.50;;;;;;4978039;28;20034;-67
2024/03/20 10:05:15;;;;;;;7.25;5.10;;;11.50;59.10;;;;;;4976116;28;20030;-70
2024/03/20 10:07:47;;;;;;;7.30;4.85;;;11.70;58.50;;;;;;4986491;28;20381;-72
2024/03/20 10:10:15;;;;;;;7.00;4.80;;;11.50;58.80;;;;;;4970501;28;20046;-70
2024/03/20 10:12:45;;;;;;;7.88;5.40;;;11.30;59.00;;;;;;4972586;28;20030;-71
2024/03/20 10:15:12;;;;;;;8.35;4.88;;;11.50;59.00;;;;;;4979400;28;20064;-72
2024/03/20 10:17:44;;;;;;;7.60;5.28;;;11.50;58.50;;;;;;4973251;28;20420;-70
2024/03/20 10:20:14;;;;;;;7.53;5.07;;;11.70;60.70;;;;;;4985446;28;20035;-70
2024/03/20 10:22:41;;;;;;;7.30;5.30;;;12.30;58.40;;;;;;4988790;28;20065;-71
2024/03/20 10:25:10;;;;;;;14.10;4.88;;;11.40;59.20;;;;;;4983922;28;20049;-72
2024/03/20 10:27:37;;;;;;;8.93;5.30;;;11.20;58.80;;;;;;4986856;28;20038;-70
2024/03/20 10:30:11;;;;;;;6.88;5.30;;;11.30;59.40;;;;;;4973662;28;20038;-70
2024/03/20 10:32:40;;;;;;;8.45;4.90;;;11.70;59.60;;;;;;4975106;28;20083;-71
2024/03/20 10:35:11;;;;;;;8.05;5.20;;;11.90;59.30;;;;;;4960703;28;20536;-72
2024/03/20 10:37:38;;;;;;;6.63;4.75;;;11.80;59.00;;;;;;5009451;28;20041;-68
2024/03/20 10:40:05;;;;;;;10.57;4.72;;;11.60;59.00;;;;;;4982967;28;20042;-69
2024/03/20 10:42:35;;;;;;;9.40;5.40;;;11.70;59.00;;;;;;4983669;28;20358;-70
2024/03/20 10:45:02;;;;;;;7.30;4.65;;;11.50;58.90;;;;;;4973041;28;20042;-70
2024/03/20 10:47:29;;;;;;;8.30;5.22;;;12.40;58.60;;;;;;4982729;28;20057;-71
2024/03/20 10:49:55;;;;;;;7.55;5.03;;;12.20;57.80;;;;;;4980622;28;20363;-71
2024/03/20 10:52:22;;;;;;;6.53;4.88;;;12.30;57.20;;;;;;4980414;28;20050;-71
2024/03/20 10:54:48;;;;;;;10.13;4.80;;;12.20;57.80;;;;;;4978496;28;20038;-71
2024/03/20 10:57:16;;;;;;;7.85;4.97;;;12.30;58.30;;;;;;4956842;28;20042;-70
2024/03/20 10:59:42;;;;;;;8.80;5.07;;;12.20;58.40;;;;;;4951244;28;20022;-72
2024/03/20 11:02:15;;;;;;;6.47;4.60;;;12.40;58.60;;;;;;4972786;28;20038;-70
2024/03/20 11:04:43;;;;;;;9.23;5.60;;;13.30;58.80;;;;;;4996590;28;20488;-72
2024/03/20 11:07:21;;;;;;;6.95;5.00;;;12.80;56.30;;;;;;4980716;28;20038;-70
2024/03/20 11:09:49;;;;;;;6.10;4.40;;;13.40;55.90;;;;;;4972739;28;20077;-70
2024/03/20 11:12:29;;;;;;;7.20;5.30;;;13.30;55.90;;;;;;4973295;28;20385;-70
2024/03/20 11:15:05;;;;;;;7.75;4.80;;;13.00;56.00;;;;;;4972764;28;20435;-71
2024/03/20 11:17:38;;;;;;;7.45;4.72;;;12.50;57.60;;;;;;4964138;28;20039;-70
2024/03/20 11:20:06;;;;;;;7.28;5.50;;;12.00;58.10;;;;;;4975107;28;20056;-72
2024/03/20 11:22:33;;;;;;;7.97;4.90;;;12.60;57.10;;;;;;4976612;28;20048;-70
2024/03/20 11:24:59;;;;;;;8.00;4.53;;;12.60;57.30;;;;;;4968252;28;20042;-68
2024/03/20 11:27:26;;;;;;;6.28;4.45;;;12.50;56.80;;;;;;4977458;28;20035;-70
2024/03/20 11:29:52;;;;;;;7.22;4.90;;;12.50;57.50;;;;;;4965014;28;20034;-72
2024/03/20 11:32:23;;;;;;;7.97;5.15;;;13.00;57.20;;;;;;4977080;28;20095;-70
2024/03/20 11:34:49;;;;;;;10.82;5.70;;;12.90;56.90;;;;;;4972150;28;20038;-73
2024/03/20 11:37:18;;;;;;;8.30;4.72;;;13.20;57.10;;;;;;4966227;28;20033;-69
2024/03/20 11:39:45;;;;;;;7.78;4.70;;;13.50;56.00;;;;;;4972313;28;20062;-70
2024/03/20 11:42:15;;;;;;;8.23;4.82;;;13.30;56.30;;;;;;4961009;28;20493;-68
2024/03/20 11:44:42;;;;;;;6.47;5.03;;;13.00;57.90;;;;;;4972390;28;20481;-71
2024/03/20 11:47:13;;;;;;;7.50;5.00;;;13.00;58.70;;;;;;4974612;28;20363;-71
2024/03/20 11:49:47;;;;;;;9.38;5.43;;;13.50;58.20;;;;;;4974203;28;20038;-71
2024/03/20 11:52:15;;;;;;;8.68;4.80;;;14.00;57.20;;;;;;4972318;28;20046;-69
2024/03/20 11:54:46;;;;;;;7.65;4.78;;;13.90;57.40;;;;;;4975354;28;20034;-71
2024/03/20 11:57:13;;;;;;;9.05;4.50;;;14.90;55.90;;;;;;4970826;28;20047;-71
2024/03/20 11:59:50;;;;;;;7.20;4.70;;;14.60;55.90;;;;;;4968955;28;20027;-69
2024/03/20 12:02:17;;;;;;;7.15;4.97;;;14.40;55.70;;;;;;4972952;28;20027;-69
2024/03/20 12:04:44;;;;;;;8.40;4.60;;;13.90;56.80;;;;;;4969147;28;20046;-70
2024/03/20 12:07:26;;;;;;;7.15;4.78;;;15.20;57.30;;;;;;4969170;28;20482;-70
2024/03/20 12:09:52;;;;;;;6.45;4.13;;;19.80;49.60;;;;;;4968408;28;20446;-70
2024/03/20 12:12:24;;;;;;;8.27;4.85;;;19.80;49.20;;;;;;4974247;28;20038;-68
2024/03/20 12:14:56;;;;;;;7.88;4.15;;;21.80;46.50;;;;;;4979817;28;20665;-69
2024/03/20 12:17:23;;;;;;;7.55;4.18;;;20.90;48.00;;;;;;4972863;28;20235;-70
2024/03/20 12:19:50;;;;;;;8.77;4.10;;;18.90;48.30;;;;;;4968844;28;20041;-69
2024/03/20 12:22:16;;;;;;;8.70;3.88;;;19.90;48.90;;;;;;4968510;28;20042;-68
2024/03/20 12:24:42;;;;;;;8.00;4.00;;;18.10;50.10;;;;;;4975266;28;20470;-69
2024/03/20 12:27:16;;;;;;;7.30;3.90;;;21.80;46.70;;;;;;4980701;28;20038;-68
2024/03/20 12:29:42;;;;;;;11.85;4.22;;;19.00;50.30;;;;;;4976762;28;20037;-68
2024/03/20 12:32:11;;;;;;;7.75;4.20;;;20.30;46.50;;;;;;4977506;28;20038;-70
2024/03/20 12:34:38;;;;;;;6.70;3.65;;;20.40;47.50;;;;;;4967558;28;20398;-69
2024/03/20 12:37:09;;;;;;;9.05;4.30;;;23.60;44.80;;;;;;4968692;28;20038;-68
2024/03/20 12:39:36;;;;;;;8.50;4.00;;;21.90;45.00;;;;;;4952267;28;20046;-68
2024/03/20 12:42:02;;;;;;;6.50;3.97;;;21.50;46.20;;;;;;4976262;28;20034;-71
2024/03/20 12:44:29;;;;;;;7.35;3.83;;;21.50;46.10;;;;;;4973170;28;20363;-67
2024/03/20 12:46:56;;;;;;;7.55;4.18;;;19.90;47.30;;;;;;4973494;28;20041;-69
2024/03/20 12:49:22;;;;;;;6.72;4.05;;;17.70;49.50;;;;;;4973650;28;20038;-68
2024/03/20 12:51:48;;;;;;;8.38;4.47;;;18.40;49.80;;;;;;4978966;28;20107;-69